sensor_id;sensor_type;location;lat;lon;timestamp;temperature;humidity
22827;DHT22;11580;52.562;13.418;2024-03-25T00:01:05;11.40;32.30
22827;DHT22;11580;52.562;13.418;2024-03-25T00:03:32;11.40;32.30
22827;DHT22;11580;52.562;13.418;2024-03-25T00:05:58;11.40;32.20
22827;DHT22;11580;52.562;13.418;2024-03-25T00:08:25;11.40;32.30
22827;DHT22;11580;52.562;13.418;2024-03-25T00:10:53;11.40;32.30
22827;DHT22;11580;52.562;13.418;2024-03-25T00:13:21;11.40;32.20
22827;DHT22;11580;52.562;13.418;2024-03-25T00:15:47;11.40;32.30
22827;DHT22;11580;52.562;13.418;2024-03-25T00:18:14;11.40;32.30
22827;DHT22;11580;52.562;13.418;2024-03-25T00:20:40;11.40;32.30
22827;DHT22;11580;52.562;13.418;2024-03-25T00:23:07;11.40;32.20
22827;DHT22;11580;52.562;13.418;2024-03-25T00:25:33;11.30;32.10
22827;DHT22;11580;52.562;13.418;2024-03-25T00:28:01;11.30;32.00
22827;DHT22;11580;52.562;13.418;2024-03-25T00:30:27;11.30;31.90
22827;DHT22;11580;52.562;13.418;2024-03-25T00:32:54;11.20;32.00
22827;DHT22;11580;52.562;13.418;2024-03-25T00:35:20;11.20;32.00
22827;DHT22;11580;52.562;13.418;2024-03-25T00:37:48;11.20;32.10
22827;DHT22;11580;52.562;13.418;2024-03-25T00:40:14;11.10;32.10
22827;DHT22;11580;52.562;13.418;2024-03-25T00:42:41;11.10;32.10
22827;DHT22;11580;52.562;13.418;2024-03-25T00:45:09;11.10;32.30
22827;DHT22;11580;52.562;13.418;2024-03-25T00:47:36;11.10;32.30
22827;DHT22;11580;52.562;13.418;2024-03-25T00:50:03;11.00;32.40
22827;DHT22;11580;52.562;13.418;2024-03-25T00:52:31;11.00;32.40
22827;DHT22;11580;52.562;13.418;2024-03-25T00:54:57;11.00;32.50
22827;DHT22;11580;52.562;13.418;2024-03-25T00:57:23;11.00;32.60
22827;DHT22;11580;52.562;13.418;2024-03-25T00:59:50;11.00;32.60
22827;DHT22;11580;52.562;13.418;2024-03-25T01:02:18;11.00;32.60
22827;DHT22;11580;52.562;13.418;2024-03-25T01:04:44;11.10;32.70
22827;DHT22;11580;52.562;13.418;2024-03-25T01:07:11;11.10;32.70
22827;DHT22;11580;52.562;13.418;2024-03-25T01:09:37;11.10;32.80
22827;DHT22;11580;52.562;13.418;2024-03-25T01:12:05;11.10;32.80
22827;DHT22;11580;52.562;13.418;2024-03-25T01:14:31;11.10;32.80
22827;DHT22;11580;52.562;13.418;2024-03-25T01:16:58;11.20;32.90
22827;DHT22;11580;52.562;13.418;2024-03-25T01:19:25;11.10;33.50
22827;DHT22;11580;52.562;13.418;2024-03-25T01:21:52;11.10;32.80
22827;DHT22;11580;52.562;13.418;2024-03-25T01:24:18;11.20;32.90
22827;DHT22;11580;52.562;13.418;2024-03-25T01:26:45;11.20;32.90
22827;DHT22;11580;52.562;13.418;2024-03-25T01:29:11;11.20;32.90
22827;DHT22;11580;52.562;13.418;2024-03-25T01:31:39;11.20;32.90
22827;DHT22;11580;52.562;13.418;2024-03-25T01:34:05;11.30;32.90
22827;DHT22;11580;52.562;13.418;2024-03-25T01:36:33;11.30;32.90
22827;DHT22;11580;52.562;13.418;2024-03-25T01:39:00;11.30;32.80
22827;DHT22;11580;52.562;13.418;2024-03-25T01:41:28;11.30;32.90
22827;DHT22;11580;52.562;13.418;2024-03-25T01:43:54;11.30;32.80
22827;DHT22;11580;52.562;13.418;2024-03-25T01:46:21;11.30;32.90
22827;DHT22;11580;52.562;13.418;2024-03-25T01:48:49;11.30;32.90
22827;DHT22;11580;52.562;13.418;2024-03-25T01:51:20;11.30;32.80
22827;DHT22;11580;52.562;13.418;2024-03-25T01:53:52;11.30;32.80
22827;DHT22;11580;52.562;13.418;2024-03-25T01:56:22;11.40;32.80
22827;DHT22;11580;52.562;13.418;2024-03-25T01:58:50;11.40;32.90
22827;DHT22;11580;52.562;13.418;2024-03-25T02:01:18;11.40;32.90
22827;DHT22;11580;52.562;13.418;2024-03-25T02:03:45;11.40;32.90
22827;DHT22;11580;52.562;13.418;2024-03-25T02:06:15;11.40;33.00
22827;DHT22;11580;52.562;13.418;2024-03-25T02:08:43;11.40;33.00
22827;DHT22;11580;52.562;13.418;2024-03-25T02:11:12;11.40;33.00
22827;DHT22;11580;52.562;13.418;2024-03-25T02:13:39;11.40;32.90
22827;DHT22;11580;52.562;13.418;2024-03-25T02:16:07;11.40;32.90
22827;DHT22;11580;52.562;13.418;2024-03-25T02:18:33;11.40;32.80
22827;DHT22;11580;52.562;13.418;2024-03-25T02:21:01;11.40;32.60
22827;DHT22;11580;52.562;13.418;2024-03-25T02:23:27;11.40;32.50
22827;DHT22;11580;52.562;13.418;2024-03-25T02:25:55;11.30;32.50
22827;DHT22;11580;52.562;13.418;2024-03-25T02:28:21;11.30;32.50
22827;DHT22;11580;52.562;13.418;2024-03-25T02:30:48;11.20;32.40
22827;DHT22;11580;52.562;13.418;2024-03-25T02:33:14;11.10;32.50
22827;DHT22;11580;52.562;13.418;2024-03-25T02:35:42;11.00;32.50
22827;DHT22;11580;52.562;13.418;2024-03-25T02:38:10;10.90;32.90
22827;DHT22;11580;52.562;13.418;2024-03-25T02:40:37;10.80;33.20
22827;DHT22;11580;52.562;13.418;2024-03-25T02:43:05;10.70;33.70
22827;DHT22;11580;52.562;13.418;2024-03-25T02:45:33;10.60;34.20
22827;DHT22;11580;52.562;13.418;2024-03-25T02:47:59;10.50;34.20
22827;DHT22;11580;52.562;13.418;2024-03-25T02:50:26;10.40;34.50
22827;DHT22;11580;52.562;13.418;2024-03-25T02:52:52;10.30;34.70
22827;DHT22;11580;52.562;13.418;2024-03-25T02:55:19;10.30;35.10
22827;DHT22;11580;52.562;13.418;2024-03-25T02:57:45;10.20;35.30
22827;DHT22;11580;52.562;13.418;2024-03-25T03:00:14;10.10;35.50
22827;DHT22;11580;52.562;13.418;2024-03-25T03:02:40;10.10;36.00
22827;DHT22;11580;52.562;13.418;2024-03-25T03:05:08;10.10;36.00
22827;DHT22;11580;52.562;13.418;2024-03-25T03:07:34;10.00;36.20
22827;DHT22;11580;52.562;13.418;2024-03-25T03:10:01;10.00;36.30
22827;DHT22;11580;52.562;13.418;2024-03-25T03:12:27;10.00;36.50
22827;DHT22;11580;52.562;13.418;2024-03-25T03:14:54;10.00;36.60
22827;DHT22;11580;52.562;13.418;2024-03-25T03:17:21;9.90;37.80
22827;DHT22;11580;52.562;13.418;2024-03-25T03:19:48;9.90;38.10
22827;DHT22;11580;52.562;13.418;2024-03-25T03:22:16;9.90;38.20
22827;DHT22;11580;52.562;13.418;2024-03-25T03:24:42;9.90;38.40
22827;DHT22;11580;52.562;13.418;2024-03-25T03:27:09;9.90;38.60
22827;DHT22;11580;52.562;13.418;2024-03-25T03:29:35;9.90;38.70
22827;DHT22;11580;52.562;13.418;2024-03-25T03:32:02;10.00;38.00
22827;DHT22;11580;52.562;13.418;2024-03-25T03:34:29;10.00;38.00
22827;DHT22;11580;52.562;13.418;2024-03-25T03:36:56;10.00;38.40
22827;DHT22;11580;52.562;13.418;2024-03-25T03:39:22;10.00;38.30
22827;DHT22;11580;52.562;13.418;2024-03-25T03:41:49;10.00;38.40
22827;DHT22;11580;52.562;13.418;2024-03-25T03:44:15;10.00;38.40
22827;DHT22;11580;52.562;13.418;2024-03-25T03:46:42;10.00;38.40
22827;DHT22;11580;52.562;13.418;2024-03-25T03:49:08;10.10;38.60
22827;DHT22;11580;52.562;13.418;2024-03-25T03:51:37;10.10;38.80
22827;DHT22;11580;52.562;13.418;2024-03-25T03:54:03;10.10;39.00
22827;DHT22;11580;52.562;13.418;2024-03-25T03:56:30;10.10;38.70
22827;DHT22;11580;52.562;13.418;2024-03-25T03:58:56;10.10;38.80
22827;DHT22;11580;52.562;13.418;2024-03-25T04:01:22;10.20;38.80
22827;DHT22;11580;52.562;13.418;2024-03-25T04:03:48;10.20;38.90
22827;DHT22;11580;52.562;13.418;2024-03-25T04:06:16;10.20;38.90
22827;DHT22;11580;52.562;13.418;2024-03-25T04:08:43;10.20;38.90
22827;DHT22;11580;52.562;13.418;2024-03-25T04:11:10;10.20;39.10
22827;DHT22;11580;52.562;13.418;2024-03-25T04:13:36;10.20;39.00
22827;DHT22;11580;52.562;13.418;2024-03-25T04:16:05;10.20;39.00
22827;DHT22;11580;52.562;13.418;2024-03-25T04:18:33;10.20;39.20
22827;DHT22;11580;52.562;13.418;2024-03-25T04:21:00;10.20;39.00
22827;DHT22;11580;52.562;13.418;2024-03-25T04:23:26;10.20;38.80
22827;DHT22;11580;52.562;13.418;2024-03-25T04:25:54;10.20;38.80
22827;DHT22;11580;52.562;13.418;2024-03-25T04:28:21;10.20;38.80
22827;DHT22;11580;52.562;13.418;2024-03-25T04:30:52;10.20;39.00
22827;DHT22;11580;52.562;13.418;2024-03-25T04:33:19;10.20;39.20
22827;DHT22;11580;52.562;13.418;2024-03-25T04:35:46;10.20;38.90
22827;DHT22;11580;52.562;13.418;2024-03-25T04:38:12;10.20;39.10
22827;DHT22;11580;52.562;13.418;2024-03-25T04:40:39;10.20;39.10
22827;DHT22;11580;52.562;13.418;2024-03-25T04:43:06;10.10;39.10
22827;DHT22;11580;52.562;13.418;2024-03-25T04:45:33;10.10;39.40
22827;DHT22;11580;52.562;13.418;2024-03-25T04:47:59;10.20;39.40
22827;DHT22;11580;52.562;13.418;2024-03-25T04:50:25;10.10;39.50
22827;DHT22;11580;52.562;13.418;2024-03-25T04:52:51;10.10;39.60
22827;DHT22;11580;52.562;13.418;2024-03-25T04:55:17;10.20;39.50
22827;DHT22;11580;52.562;13.418;2024-03-25T04:57:44;10.20;39.70
22827;DHT22;11580;52.562;13.418;2024-03-25T05:00:12;10.20;39.70
22827;DHT22;11580;52.562;13.418;2024-03-25T05:02:39;10.20;39.90
22827;DHT22;11580;52.562;13.418;2024-03-25T05:05:06;10.20;39.80
22827;DHT22;11580;52.562;13.418;2024-03-25T05:07:32;10.20;39.70
22827;DHT22;11580;52.562;13.418;2024-03-25T05:09:59;10.20;39.70
22827;DHT22;11580;52.562;13.418;2024-03-25T05:12:25;10.20;39.90
22827;DHT22;11580;52.562;13.418;2024-03-25T05:14:51;10.20;40.00
22827;DHT22;11580;52.562;13.418;2024-03-25T05:17:18;10.20;40.20
22827;DHT22;11580;52.562;13.418;2024-03-25T05:19:44;10.20;40.30
22827;DHT22;11580;52.562;13.418;2024-03-25T05:22:10;10.30;40.50
22827;DHT22;11580;52.562;13.418;2024-03-25T05:24:37;10.30;40.50
22827;DHT22;11580;52.562;13.418;2024-03-25T05:27:03;10.30;41.20
22827;DHT22;11580;52.562;13.418;2024-03-25T05:29:29;10.30;40.50
22827;DHT22;11580;52.562;13.418;2024-03-25T05:31:56;10.40;40.60
22827;DHT22;11580;52.562;13.418;2024-03-25T05:34:25;10.40;40.60
22827;DHT22;11580;52.562;13.418;2024-03-25T05:36:52;10.40;40.60
22827;DHT22;11580;52.562;13.418;2024-03-25T05:39:19;10.40;40.60
22827;DHT22;11580;52.562;13.418;2024-03-25T05:41:45;10.50;40.70
22827;DHT22;11580;52.562;13.418;2024-03-25T05:44:11;10.50;40.70
22827;DHT22;11580;52.562;13.418;2024-03-25T05:46:38;10.50;40.70
22827;DHT22;11580;52.562;13.418;2024-03-25T05:49:05;10.60;40.70
22827;DHT22;11580;52.562;13.418;2024-03-25T05:51:32;10.60;40.80
22827;DHT22;11580;52.562;13.418;2024-03-25T05:53:59;10.60;40.80
22827;DHT22;11580;52.562;13.418;2024-03-25T05:56:26;10.60;40.70
22827;DHT22;11580;52.562;13.418;2024-03-25T05:58:53;10.70;41.60
22827;DHT22;11580;52.562;13.418;2024-03-25T06:01:19;10.70;40.80
22827;DHT22;11580;52.562;13.418;2024-03-25T06:03:45;10.70;40.70
22827;DHT22;11580;52.562;13.418;2024-03-25T06:06:13;10.70;40.70
22827;DHT22;11580;52.562;13.418;2024-03-25T06:08:41;10.70;40.80
22827;DHT22;11580;52.562;13.418;2024-03-25T06:11:07;10.70;40.80
22827;DHT22;11580;52.562;13.418;2024-03-25T06:13:33;10.70;40.80
22827;DHT22;11580;52.562;13.418;2024-03-25T06:15:59;10.70;40.90
22827;DHT22;11580;52.562;13.418;2024-03-25T06:18:25;10.70;40.80
22827;DHT22;11580;52.562;13.418;2024-03-25T06:20:51;10.70;40.90
22827;DHT22;11580;52.562;13.418;2024-03-25T06:23:24;10.70;40.80
22827;DHT22;11580;52.562;13.418;2024-03-25T06:25:53;10.70;40.90
22827;DHT22;11580;52.562;13.418;2024-03-25T06:28:20;10.70;40.80
22827;DHT22;11580;52.562;13.418;2024-03-25T06:30:47;10.70;40.80
22827;DHT22;11580;52.562;13.418;2024-03-25T06:33:32;10.70;40.80
22827;DHT22;11580;52.562;13.418;2024-03-25T06:36:17;10.70;40.80
22827;DHT22;11580;52.562;13.418;2024-03-25T06:38:44;10.80;41.00
22827;DHT22;11580;52.562;13.418;2024-03-25T06:41:11;10.80;41.60
22827;DHT22;11580;52.562;13.418;2024-03-25T06:43:38;10.80;40.90
22827;DHT22;11580;52.562;13.418;2024-03-25T06:46:04;10.80;40.90
22827;DHT22;11580;52.562;13.418;2024-03-25T06:48:31;10.80;40.90
22827;DHT22;11580;52.562;13.418;2024-03-25T06:50:57;10.80;41.00
22827;DHT22;11580;52.562;13.418;2024-03-25T06:53:25;10.80;41.10
22827;DHT22;11580;52.562;13.418;2024-03-25T06:55:52;10.80;41.20
22827;DHT22;11580;52.562;13.418;2024-03-25T06:58:21;10.80;41.00
22827;DHT22;11580;52.562;13.418;2024-03-25T07:00:49;10.90;41.30
22827;DHT22;11580;52.562;13.418;2024-03-25T07:03:15;10.90;41.10
22827;DHT22;11580;52.562;13.418;2024-03-25T07:05:43;10.90;41.20
22827;DHT22;11580;52.562;13.418;2024-03-25T07:08:10;10.90;41.40
22827;DHT22;11580;52.562;13.418;2024-03-25T07:10:36;11.00;41.50
22827;DHT22;11580;52.562;13.418;2024-03-25T07:13:02;11.00;41.40
22827;DHT22;11580;52.562;13.418;2024-03-25T07:15:30;11.00;41.30
22827;DHT22;11580;52.562;13.418;2024-03-25T07:17:56;11.00;41.50
22827;DHT22;11580;52.562;13.418;2024-03-25T07:20:22;11.10;41.40
22827;DHT22;11580;52.562;13.418;2024-03-25T07:22:49;11.10;41.40
22827;DHT22;11580;52.562;13.418;2024-03-25T07:25:15;11.10;41.60
22827;DHT22;11580;52.562;13.418;2024-03-25T07:27:41;11.10;41.50
22827;DHT22;11580;52.562;13.418;2024-03-25T07:30:07;11.10;41.40
22827;DHT22;11580;52.562;13.418;2024-03-25T07:32:35;11.10;41.40
22827;DHT22;11580;52.562;13.418;2024-03-25T07:35:01;11.20;41.60
22827;DHT22;11580;52.562;13.418;2024-03-25T07:37:28;11.20;41.30
22827;DHT22;11580;52.562;13.418;2024-03-25T07:39:54;11.20;41.50
22827;DHT22;11580;52.562;13.418;2024-03-25T07:42:20;11.20;41.60
22827;DHT22;11580;52.562;13.418;2024-03-25T07:44:46;11.20;41.60
22827;DHT22;11580;52.562;13.418;2024-03-25T07:47:13;11.30;42.10
22827;DHT22;11580;52.562;13.418;2024-03-25T07:49:40;11.30;42.20
22827;DHT22;11580;52.562;13.418;2024-03-25T07:52:07;11.30;42.60
22827;DHT22;11580;52.562;13.418;2024-03-25T07:54:33;11.30;41.40
22827;DHT22;11580;52.562;13.418;2024-03-25T07:56:59;11.40;41.50
22827;DHT22;11580;52.562;13.418;2024-03-25T07:59:25;11.40;41.40
22827;DHT22;11580;52.562;13.418;2024-03-25T08:01:51;11.40;41.50
22827;DHT22;11580;52.562;13.418;2024-03-25T08:04:17;11.40;41.50
22827;DHT22;11580;52.562;13.418;2024-03-25T08:06:45;11.40;41.50
22827;DHT22;11580;52.562;13.418;2024-03-25T08:09:11;11.30;41.40
22827;DHT22;11580;52.562;13.418;2024-03-25T08:11:37;11.50;41.50
22827;DHT22;11580;52.562;13.418;2024-03-25T08:14:03;11.30;41.40
22827;DHT22;11580;52.562;13.418;2024-03-25T08:16:30;11.30;41.40
22827;DHT22;11580;52.562;13.418;2024-03-25T08:18:56;11.30;41.40
22827;DHT22;11580;52.562;13.418;2024-03-25T08:21:22;11.30;41.40
22827;DHT22;11580;52.562;13.418;2024-03-25T08:23:50;11.30;41.40
22827;DHT22;11580;52.562;13.418;2024-03-25T08:26:16;11.30;41.50
22827;DHT22;11580;52.562;13.418;2024-03-25T08:28:43;11.30;41.80
22827;DHT22;11580;52.562;13.418;2024-03-25T08:31:09;11.40;42.10
22827;DHT22;11580;52.562;13.418;2024-03-25T08:33:35;11.40;42.70
22827;DHT22;11580;52.562;13.418;2024-03-25T08:36:02;11.40;42.90
22827;DHT22;11580;52.562;13.418;2024-03-25T08:38:28;11.50;43.50
22827;DHT22;11580;52.562;13.418;2024-03-25T08:40:56;11.60;43.60
22827;DHT22;11580;52.562;13.418;2024-03-25T08:43:23;11.70;43.40
22827;DHT22;11580;52.562;13.418;2024-03-25T08:45:49;11.80;42.80
22827;DHT22;11580;52.562;13.418;2024-03-25T08:48:15;11.90;42.40
22827;DHT22;11580;52.562;13.418;2024-03-25T08:50:41;11.90;42.20
22827;DHT22;11580;52.562;13.418;2024-03-25T08:53:07;11.90;42.20
22827;DHT22;11580;52.562;13.418;2024-03-25T08:55:33;12.00;42.20
22827;DHT22;11580;52.562;13.418;2024-03-25T08:58:00;12.00;42.00
22827;DHT22;11580;52.562;13.418;2024-03-25T09:00:26;12.10;42.00
22827;DHT22;11580;52.562;13.418;2024-03-25T09:02:53;12.10;42.00
22827;DHT22;11580;52.562;13.418;2024-03-25T09:05:19;12.10;42.00
22827;DHT22;11580;52.562;13.418;2024-03-25T09:07:46;12.20;42.10
22827;DHT22;11580;52.562;13.418;2024-03-25T09:10:15;12.20;42.10
22827;DHT22;11580;52.562;13.418;2024-03-25T09:13:01;12.30;42.20
22827;DHT22;11580;52.562;13.418;2024-03-25T09:15:28;12.30;42.20
22827;DHT22;11580;52.562;13.418;2024-03-25T09:17:55;12.40;42.20
22827;DHT22;11580;52.562;13.418;2024-03-25T09:20:21;12.40;41.80
22827;DHT22;11580;52.562;13.418;2024-03-25T09:22:47;12.40;42.00
22827;DHT22;11580;52.562;13.418;2024-03-25T09:25:14;12.50;41.90
22827;DHT22;11580;52.562;13.418;2024-03-25T09:27:40;12.60;41.50
22827;DHT22;11580;52.562;13.418;2024-03-25T09:30:09;12.60;41.20
22827;DHT22;11580;52.562;13.418;2024-03-25T09:32:35;12.70;41.00
22827;DHT22;11580;52.562;13.418;2024-03-25T09:35:01;12.70;41.10
22827;DHT22;11580;52.562;13.418;2024-03-25T09:37:27;12.80;41.20
22827;DHT22;11580;52.562;13.418;2024-03-25T09:39:54;12.80;40.70
22827;DHT22;11580;52.562;13.418;2024-03-25T09:42:25;12.80;40.00
22827;DHT22;11580;52.562;13.418;2024-03-25T09:44:54;12.90;39.40
22827;DHT22;11580;52.562;13.418;2024-03-25T09:47:22;12.90;39.40
22827;DHT22;11580;52.562;13.418;2024-03-25T09:49:50;12.90;39.20
22827;DHT22;11580;52.562;13.418;2024-03-25T09:52:20;12.90;39.10
22827;DHT22;11580;52.562;13.418;2024-03-25T09:54:46;13.00;39.40
22827;DHT22;11580;52.562;13.418;2024-03-25T09:57:13;13.00;40.10
22827;DHT22;11580;52.562;13.418;2024-03-25T09:59:40;13.00;38.90
22827;DHT22;11580;52.562;13.418;2024-03-25T10:02:06;13.10;38.60
22827;DHT22;11580;52.562;13.418;2024-03-25T10:04:41;13.10;38.30
22827;DHT22;11580;52.562;13.418;2024-03-25T10:07:11;13.10;38.40
22827;DHT22;11580;52.562;13.418;2024-03-25T10:09:37;13.20;39.50
22827;DHT22;11580;52.562;13.418;2024-03-25T10:12:03;13.30;40.00
22827;DHT22;11580;52.562;13.418;2024-03-25T10:14:29;13.50;40.00
22827;DHT22;11580;52.562;13.418;2024-03-25T10:16:55;13.60;39.60
22827;DHT22;11580;52.562;13.418;2024-03-25T10:19:22;13.80;38.60
22827;DHT22;11580;52.562;13.418;2024-03-25T10:21:49;13.90;37.50
22827;DHT22;11580;52.562;13.418;2024-03-25T10:24:16;14.00;36.50
22827;DHT22;11580;52.562;13.418;2024-03-25T10:26:43;14.00;35.80
22827;DHT22;11580;52.562;13.418;2024-03-25T10:29:10;14.00;35.60
22827;DHT22;11580;52.562;13.418;2024-03-25T10:31:36;14.00;35.60
22827;DHT22;11580;52.562;13.418;2024-03-25T10:34:03;14.00;35.50
22827;DHT22;11580;52.562;13.418;2024-03-25T10:36:30;14.00;36.00
22827;DHT22;11580;52.562;13.418;2024-03-25T10:39:02;14.10;36.10
22827;DHT22;11580;52.562;13.418;2024-03-25T10:41:29;14.20;34.10
22827;DHT22;11580;52.562;13.418;2024-03-25T10:43:59;14.30;35.80
22827;DHT22;11580;52.562;13.418;2024-03-25T10:46:29;14.40;34.60
22827;DHT22;11580;52.562;13.418;2024-03-25T10:49:04;14.50;34.90
22827;DHT22;11580;52.562;13.418;2024-03-25T10:51:36;14.60;32.70
22827;DHT22;11580;52.562;13.418;2024-03-25T10:54:06;14.70;34.70
22827;DHT22;11580;52.562;13.418;2024-03-25T10:56:33;14.80;33.50
22827;DHT22;11580;52.562;13.418;2024-03-25T10:59:00;14.90;34.20
22827;DHT22;11580;52.562;13.418;2024-03-25T11:01:29;15.00;33.80
22827;DHT22;11580;52.562;13.418;2024-03-25T11:03:56;15.10;33.20
22827;DHT22;11580;52.562;13.418;2024-03-25T11:06:23;15.20;33.00
22827;DHT22;11580;52.562;13.418;2024-03-25T11:08:55;15.30;32.30
22827;DHT22;11580;52.562;13.418;2024-03-25T11:11:24;15.30;29.70
22827;DHT22;11580;52.562;13.418;2024-03-25T11:13:56;15.30;30.60
22827;DHT22;11580;52.562;13.418;2024-03-25T11:16:28;15.30;30.20
22827;DHT22;11580;52.562;13.418;2024-03-25T11:19:00;15.30;28.70
22827;DHT22;11580;52.562;13.418;2024-03-25T11:21:27;15.20;29.20
22827;DHT22;11580;52.562;13.418;2024-03-25T11:23:54;15.20;28.90
22827;DHT22;11580;52.562;13.418;2024-03-25T11:26:21;15.20;28.70
22827;DHT22;11580;52.562;13.418;2024-03-25T11:28:51;15.10;28.40
22827;DHT22;11580;52.562;13.418;2024-03-25T11:31:18;15.10;28.10
22827;DHT22;11580;52.562;13.418;2024-03-25T11:33:46;15.10;28.60
22827;DHT22;11580;52.562;13.418;2024-03-25T11:36:13;15.10;28.80
22827;DHT22;11580;52.562;13.418;2024-03-25T11:38:39;15.20;27.70
22827;DHT22;11580;52.562;13.418;2024-03-25T11:41:06;15.20;27.10
22827;DHT22;11580;52.562;13.418;2024-03-25T11:43:32;15.20;27.50
22827;DHT22;11580;52.562;13.418;2024-03-25T11:46:00;15.20;27.80
22827;DHT22;11580;52.562;13.418;2024-03-25T11:48:26;15.30;27.80
22827;DHT22;11580;52.562;13.418;2024-03-25T11:50:54;15.30;28.10
22827;DHT22;11580;52.562;13.418;2024-03-25T11:53:21;15.40;28.50
22827;DHT22;11580;52.562;13.418;2024-03-25T11:55:47;15.50;28.00
22827;DHT22;11580;52.562;13.418;2024-03-25T11:58:14;15.60;26.90
22827;DHT22;11580;52.562;13.418;2024-03-25T12:00:44;15.70;26.80
22827;DHT22;11580;52.562;13.418;2024-03-25T12:03:13;15.70;25.80
22827;DHT22;11580;52.562;13.418;2024-03-25T12:05:41;15.70;25.90
22827;DHT22;11580;52.562;13.418;2024-03-25T12:08:08;15.80;26.30
22827;DHT22;11580;52.562;13.418;2024-03-25T12:10:34;15.80;26.70
22827;DHT22;11580;52.562;13.418;2024-03-25T12:13:19;15.80;26.70
22827;DHT22;11580;52.562;13.418;2024-03-25T12:15:45;15.80;25.40
22827;DHT22;11580;52.562;13.418;2024-03-25T12:18:14;15.70;25.20
22827;DHT22;11580;52.562;13.418;2024-03-25T12:20:41;15.60;24.20
22827;DHT22;11580;52.562;13.418;2024-03-25T12:23:10;15.50;24.40
22827;DHT22;11580;52.562;13.418;2024-03-25T12:25:36;15.50;24.50
22827;DHT22;11580;52.562;13.418;2024-03-25T12:28:08;15.40;24.70
22827;DHT22;11580;52.562;13.418;2024-03-25T12:30:48;15.30;24.80
22827;DHT22;11580;52.562;13.418;2024-03-25T12:33:16;15.30;23.80
22827;DHT22;11580;52.562;13.418;2024-03-25T12:35:45;15.20;24.00
22827;DHT22;11580;52.562;13.418;2024-03-25T12:38:24;15.10;24.20
22827;DHT22;11580;52.562;13.418;2024-03-25T12:40:51;15.00;23.90
22827;DHT22;11580;52.562;13.418;2024-03-25T12:43:17;14.90;24.70
22827;DHT22;11580;52.562;13.418;2024-03-25T12:45:44;14.80;25.10
22827;DHT22;11580;52.562;13.418;2024-03-25T12:48:10;14.80;25.50
22827;DHT22;11580;52.562;13.418;2024-03-25T12:50:38;14.70;26.60
22827;DHT22;11580;52.562;13.418;2024-03-25T12:53:04;14.70;26.10
22827;DHT22;11580;52.562;13.418;2024-03-25T12:55:30;14.80;26.30
22827;DHT22;11580;52.562;13.418;2024-03-25T12:57:56;14.80;26.00
22827;DHT22;11580;52.562;13.418;2024-03-25T13:00:22;14.90;25.90
22827;DHT22;11580;52.562;13.418;2024-03-25T13:02:49;15.10;26.00
22827;DHT22;11580;52.562;13.418;2024-03-25T13:05:15;15.10;26.10
22827;DHT22;11580;52.562;13.418;2024-03-25T13:07:43;15.30;26.40
22827;DHT22;11580;52.562;13.418;2024-03-25T13:10:09;15.40;25.70
22827;DHT22;11580;52.562;13.418;2024-03-25T13:12:35;15.50;25.00
22827;DHT22;11580;52.562;13.418;2024-03-25T13:15:01;15.60;25.30
22827;DHT22;11580;52.562;13.418;2024-03-25T13:17:27;15.60;25.20
22827;DHT22;11580;52.562;13.418;2024-03-25T13:19:53;15.70;25.30
22827;DHT22;11580;52.562;13.418;2024-03-25T13:22:19;15.70;25.60
22827;DHT22;11580;52.562;13.418;2024-03-25T13:24:46;15.80;25.60
22827;DHT22;11580;52.562;13.418;2024-03-25T13:27:13;15.90;25.40
22827;DHT22;11580;52.562;13.418;2024-03-25T13:29:39;15.90;25.40
22827;DHT22;11580;52.562;13.418;2024-03-25T13:32:05;16.00;25.50
22827;DHT22;11580;52.562;13.418;2024-03-25T13:34:31;16.00;25.20
22827;DHT22;11580;52.562;13.418;2024-03-25T13:36:57;16.00;24.50
22827;DHT22;11580;52.562;13.418;2024-03-25T13:39:23;16.00;24.40
22827;DHT22;11580;52.562;13.418;2024-03-25T13:41:51;16.00;24.20
22827;DHT22;11580;52.562;13.418;2024-03-25T13:44:17;16.00;23.30
22827;DHT22;11580;52.562;13.418;2024-03-25T13:46:43;16.00;23.90
22827;DHT22;11580;52.562;13.418;2024-03-25T13:49:09;16.00;23.90
22827;DHT22;11580;52.562;13.418;2024-03-25T13:51:35;16.10;24.00
22827;DHT22;11580;52.562;13.418;2024-03-25T13:54:01;16.10;22.80
22827;DHT22;11580;52.562;13.418;2024-03-25T13:56:27;16.10;22.80
22827;DHT22;11580;52.562;13.418;2024-03-25T13:58:55;16.10;22.80
22827;DHT22;11580;52.562;13.418;2024-03-25T14:01:21;16.10;22.10
22827;DHT22;11580;52.562;13.418;2024-03-25T14:03:47;16.10;22.80
22827;DHT22;11580;52.562;13.418;2024-03-25T14:06:13;16.10;22.80
22827;DHT22;11580;52.562;13.418;2024-03-25T14:08:39;16.10;23.30
22827;DHT22;11580;52.562;13.418;2024-03-25T14:11:05;16.20;23.60
22827;DHT22;11580;52.562;13.418;2024-03-25T14:13:31;16.20;23.70
22827;DHT22;11580;52.562;13.418;2024-03-25T14:15:59;16.30;23.60
22827;DHT22;11580;52.562;13.418;2024-03-25T14:18:25;16.30;22.60
22827;DHT22;11580;52.562;13.418;2024-03-25T14:20:51;16.30;23.20
22827;DHT22;11580;52.562;13.418;2024-03-25T14:23:18;16.30;22.40
22827;DHT22;11580;52.562;13.418;2024-03-25T14:25:44;16.20;22.20
22827;DHT22;11580;52.562;13.418;2024-03-25T14:28:10;16.20;21.90
22827;DHT22;11580;52.562;13.418;2024-03-25T14:30:36;16.10;22.10
22827;DHT22;11580;52.562;13.418;2024-03-25T14:33:04;16.10;22.30
22827;DHT22;11580;52.562;13.418;2024-03-25T14:35:30;16.10;22.40
22827;DHT22;11580;52.562;13.418;2024-03-25T14:37:56;16.10;22.80
22827;DHT22;11580;52.562;13.418;2024-03-25T14:40:22;16.10;22.80
22827;DHT22;11580;52.562;13.418;2024-03-25T14:42:48;16.20;22.90
22827;DHT22;11580;52.562;13.418;2024-03-25T14:45:15;16.20;22.90
22827;DHT22;11580;52.562;13.418;2024-03-25T14:47:41;16.30;22.90
22827;DHT22;11580;52.562;13.418;2024-03-25T14:50:09;16.30;22.90
22827;DHT22;11580;52.562;13.418;2024-03-25T14:52:35;16.30;22.60
22827;DHT22;11580;52.562;13.418;2024-03-25T14:55:01;16.30;22.40
22827;DHT22;11580;52.562;13.418;2024-03-25T14:57:27;16.30;22.50
22827;DHT22;11580;52.562;13.418;2024-03-25T14:59:53;16.20;22.90
22827;DHT22;11580;52.562;13.418;2024-03-25T15:02:19;16.10;22.80
22827;DHT22;11580;52.562;13.418;2024-03-25T15:04:45;16.10;22.80
22827;DHT22;11580;52.562;13.418;2024-03-25T15:07:13;16.00;22.70
22827;DHT22;11580;52.562;13.418;2024-03-25T15:09:39;15.90;22.70
22827;DHT22;11580;52.562;13.418;2024-03-25T15:12:05;15.90;23.20
22827;DHT22;11580;52.562;13.418;2024-03-25T15:14:32;15.80;23.00
22827;DHT22;11580;52.562;13.418;2024-03-25T15:16:58;15.70;23.00